sensor_id;sensor_type;location;lat;lon;timestamp;temperature;humidity
35373;DHT22;21476;51.652;7.852;2022-11-20T00:01:15;-3.40;99.90
35373;DHT22;21476;51.652;7.852;2022-11-20T00:03:41;-3.40;99.90
35373;DHT22;21476;51.652;7.852;2022-11-20T00:06:09;-3.40;99.90
35373;DHT22;21476;51.652;7.852;2022-11-20T00:08:35;-3.50;99.90
35373;DHT22;21476;51.652;7.852;2022-11-20T00:11:09;-3.50;99.90
35373;DHT22;21476;51.652;7.852;2022-11-20T00:13:36;-3.60;99.90
35373;DHT22;21476;51.652;7.852;2022-11-20T00:16:04;-3.60;99.90
35373;DHT22;21476;51.652;7.852;2022-11-20T00:18:30;-3.50;99.90
35373;DHT22;21476;51.652;7.852;2022-11-20T00:21:04;-3.60;99.90
35373;DHT22;21476;51.652;7.852;2022-11-20T00:23:31;-3.60;99.90
35373;DHT22;21476;51.652;7.852;2022-11-20T00:26:00;-3.60;99.90
35373;DHT22;21476;51.652;7.852;2022-11-20T00:28:26;-3.60;99.90
35373;DHT22;21476;51.652;7.852;2022-11-20T00:30:51;-3.70;99.90
35373;DHT22;21476;51.652;7.852;2022-11-20T00:33:17;-3.70;99.90
35373;DHT22;21476;51.652;7.852;2022-11-20T00:35:43;-3.70;99.90
35373;DHT22;21476;51.652;7.852;2022-11-20T00:38:08;-3.70;99.90
35373;DHT22;21476;51.652;7.852;2022-11-20T00:40:34;-3.70;99.90
35373;DHT22;21476;51.652;7.852;2022-11-20T00:42:59;-3.70;99.90
35373;DHT22;21476;51.652;7.852;2022-11-20T00:45:25;-3.70;99.90
35373;DHT22;21476;51.652;7.852;2022-11-20T00:47:50;-3.70;99.90
35373;DHT22;21476;51.652;7.852;2022-11-20T00:50:16;-3.80;99.90
35373;DHT22;21476;51.652;7.852;2022-11-20T00:52:42;-3.80;99.90
35373;DHT22;21476;51.652;7.852;2022-11-20T00:55:07;-3.90;99.90
35373;DHT22;21476;51.652;7.852;2022-11-20T00:57:33;-3.80;99.90
35373;DHT22;21476;51.652;7.852;2022-11-20T00:59:58;-3.80;99.90
35373;DHT22;21476;51.652;7.852;2022-11-20T01:02:24;-3.80;99.90
35373;DHT22;21476;51.652;7.852;2022-11-20T01:04:49;-3.80;99.90
35373;DHT22;21476;51.652;7.852;2022-11-20T01:07:15;-3.90;99.90
35373;DHT22;21476;51.652;7.852;2022-11-20T01:09:41;-3.90;99.90
35373;DHT22;21476;51.652;7.852;2022-11-20T01:12:06;-3.90;99.90
35373;DHT22;21476;51.652;7.852;2022-11-20T01:14:32;-3.90;99.90
35373;DHT22;21476;51.652;7.852;2022-11-20T01:16:57;-3.90;99.90
35373;DHT22;21476;51.652;7.852;2022-11-20T01:19:23;-3.90;99.90
35373;DHT22;21476;51.652;7.852;2022-11-20T01:21:53;-3.80;99.90
35373;DHT22;21476;51.652;7.852;2022-11-20T01:24:20;-3.80;99.90
35373;DHT22;21476;51.652;7.852;2022-11-20T01:26:48;-3.80;99.90
35373;DHT22;21476;51.652;7.852;2022-11-20T01:29:32;-3.80;99.90
35373;DHT22;21476;51.652;7.852;2022-11-20T01:31:58;-3.80;99.90
35373;DHT22;21476;51.652;7.852;2022-11-20T01:34:24;-3.80;99.90
35373;DHT22;21476;51.652;7.852;2022-11-20T01:36:51;-3.80;99.90
35373;DHT22;21476;51.652;7.852;2022-11-20T01:39:20;-3.70;99.90
35373;DHT22;21476;51.652;7.852;2022-11-20T01:41:47;-3.60;99.90
35373;DHT22;21476;51.652;7.852;2022-11-20T01:44:48;-3.50;99.90
35373;DHT22;21476;51.652;7.852;2022-11-20T01:47:22;-3.40;99.90
35373;DHT22;21476;51.652;7.852;2022-11-20T01:49:54;-3.30;99.90
35373;DHT22;21476;51.652;7.852;2022-11-20T01:52:38;-3.10;99.90
35373;DHT22;21476;51.652;7.852;2022-11-20T01:55:26;-3.00;99.90
35373;DHT22;21476;51.652;7.852;2022-11-20T01:57:54;-2.90;99.90
35373;DHT22;21476;51.652;7.852;2022-11-20T02:00:20;-2.90;99.90
35373;DHT22;21476;51.652;7.852;2022-11-20T02:02:57;-2.80;99.90
35373;DHT22;21476;51.652;7.852;2022-11-20T02:05:41;-2.80;99.90
35373;DHT22;21476;51.652;7.852;2022-11-20T02:08:09;-2.60;99.90
35373;DHT22;21476;51.652;7.852;2022-11-20T02:10:35;-2.60;99.90
35373;DHT22;21476;51.652;7.852;2022-11-20T02:13:01;-2.50;99.90
35373;DHT22;21476;51.652;7.852;2022-11-20T02:15:46;-2.40;99.90
35373;DHT22;21476;51.652;7.852;2022-11-20T02:18:14;-2.50;99.90
35373;DHT22;21476;51.652;7.852;2022-11-20T02:20:46;-2.50;99.90
35373;DHT22;21476;51.652;7.852;2022-11-20T02:23:20;-2.50;99.90
35373;DHT22;21476;51.652;7.852;2022-11-20T02:25:47;-2.50;99.90
35373;DHT22;21476;51.652;7.852;2022-11-20T02:28:13;-2.50;99.90
35373;DHT22;21476;51.652;7.852;2022-11-20T02:30:38;-2.40;99.90
35373;DHT22;21476;51.652;7.852;2022-11-20T02:33:04;-2.40;99.90
35373;DHT22;21476;51.652;7.852;2022-11-20T02:37:58;-2.30;99.90
35373;DHT22;21476;51.652;7.852;2022-11-20T02:40:24;-2.30;99.90
35373;DHT22;21476;51.652;7.852;2022-11-20T02:42:53;-2.30;99.90
35373;DHT22;21476;51.652;7.852;2022-11-20T02:45:19;-2.30;99.90
35373;DHT22;21476;51.652;7.852;2022-11-20T02:47:45;-2.30;99.90
35373;DHT22;21476;51.652;7.852;2022-11-20T02:50:11;-2.30;99.90
35373;DHT22;21476;51.652;7.852;2022-11-20T02:52:37;-2.20;99.90
35373;DHT22;21476;51.652;7.852;2022-11-20T02:55:03;-2.10;99.90
35373;DHT22;21476;51.652;7.852;2022-11-20T02:57:29;-2.10;99.90
35373;DHT22;21476;51.652;7.852;2022-11-20T02:59:54;-2.10;99.90
35373;DHT22;21476;51.652;7.852;2022-11-20T03:02:20;-2.10;99.90
35373;DHT22;21476;51.652;7.852;2022-11-20T03:04:45;-2.00;99.90
35373;DHT22;21476;51.652;7.852;2022-11-20T03:07:11;-2.00;99.90
35373;DHT22;21476;51.652;7.852;2022-11-20T03:09:37;-1.90;99.90
35373;DHT22;21476;51.652;7.852;2022-11-20T03:12:03;-1.80;99.90
35373;DHT22;21476;51.652;7.852;2022-11-20T03:14:28;-1.90;99.90
35373;DHT22;21476;51.652;7.852;2022-11-20T03:16:55;-1.90;99.90
35373;DHT22;21476;51.652;7.852;2022-11-20T03:19:21;-1.90;99.90
35373;DHT22;21476;51.652;7.852;2022-11-20T03:21:47;-1.90;99.90
35373;DHT22;21476;51.652;7.852;2022-11-20T03:24:12;-1.90;99.90
35373;DHT22;21476;51.652;7.852;2022-11-20T03:26:39;-1.80;99.90
35373;DHT22;21476;51.652;7.852;2022-11-20T03:29:04;-1.80;99.90
35373;DHT22;21476;51.652;7.852;2022-11-20T03:31:33;-1.80;99.90
35373;DHT22;21476;51.652;7.852;2022-11-20T03:34:00;-1.70;99.90
35373;DHT22;21476;51.652;7.852;2022-11-20T03:36:27;-1.70;99.90
35373;DHT22;21476;51.652;7.852;2022-11-20T03:38:56;-1.70;99.90
35373;DHT22;21476;51.652;7.852;2022-11-20T03:41:27;-1.40;99.90
35373;DHT22;21476;51.652;7.852;2022-11-20T03:44:00;-1.40;99.90
35373;DHT22;21476;51.652;7.852;2022-11-20T03:46:27;-1.50;99.90
35373;DHT22;21476;51.652;7.852;2022-11-20T03:48:53;-1.40;99.90
35373;DHT22;21476;51.652;7.852;2022-11-20T03:51:22;-1.40;99.90
35373;DHT22;21476;51.652;7.852;2022-11-20T03:53:49;-1.20;99.90
35373;DHT22;21476;51.652;7.852;2022-11-20T03:56:16;-1.30;99.90
35373;DHT22;21476;51.652;7.852;2022-11-20T03:58:42;-1.30;99.90
35373;DHT22;21476;51.652;7.852;2022-11-20T04:01:12;-1.30;99.90
35373;DHT22;21476;51.652;7.852;2022-11-20T04:03:38;-1.30;99.90
35373;DHT22;21476;51.652;7.852;2022-11-20T04:06:07;-1.30;99.90
35373;DHT22;21476;51.652;7.852;2022-11-20T04:08:33;-1.30;99.90
35373;DHT22;21476;51.652;7.852;2022-11-20T04:11:19;-1.30;99.90
35373;DHT22;21476;51.652;7.852;2022-11-20T04:13:51;-1.20;99.90
35373;DHT22;21476;51.652;7.852;2022-11-20T04:16:17;-1.30;99.90
35373;DHT22;21476;51.652;7.852;2022-11-20T04:18:43;-1.30;99.90
35373;DHT22;21476;51.652;7.852;2022-11-20T04:21:10;-1.30;99.90
35373;DHT22;21476;51.652;7.852;2022-11-20T04:23:36;-1.30;99.90
35373;DHT22;21476;51.652;7.852;2022-11-20T04:26:12;-1.30;99.90
35373;DHT22;21476;51.652;7.852;2022-11-20T04:28:38;-1.20;99.90
35373;DHT22;21476;51.652;7.852;2022-11-20T04:31:06;-1.20;99.90
35373;DHT22;21476;51.652;7.852;2022-11-20T04:33:32;-1.10;99.90
35373;DHT22;21476;51.652;7.852;2022-11-20T04:36:06;-1.10;99.90
35373;DHT22;21476;51.652;7.852;2022-11-20T04:38:33;-1.10;99.90
35373;DHT22;21476;51.652;7.852;2022-11-20T04:41:00;-1.00;99.90
35373;DHT22;21476;51.652;7.852;2022-11-20T04:43:26;-1.00;99.90
35373;DHT22;21476;51.652;7.852;2022-11-20T04:45:53;-1.00;99.90
35373;DHT22;21476;51.652;7.852;2022-11-20T04:48:19;-1.00;99.90
35373;DHT22;21476;51.652;7.852;2022-11-20T04:50:44;-0.90;99.90
35373;DHT22;21476;51.652;7.852;2022-11-20T04:53:10;-0.80;99.90
35373;DHT22;21476;51.652;7.852;2022-11-20T04:55:36;-0.80;99.90
35373;DHT22;21476;51.652;7.852;2022-11-20T04:58:01;-0.90;99.90
35373;DHT22;21476;51.652;7.852;2022-11-20T05:00:27;-0.80;99.90
35373;DHT22;21476;51.652;7.852;2022-11-20T05:02:52;-0.80;99.90
35373;DHT22;21476;51.652;7.852;2022-11-20T05:05:18;-0.70;99.90
35373;DHT22;21476;51.652;7.852;2022-11-20T05:07:44;-0.70;99.90
35373;DHT22;21476;51.652;7.852;2022-11-20T05:10:09;-0.80;99.90
35373;DHT22;21476;51.652;7.852;2022-11-20T05:12:35;-0.80;99.90
35373;DHT22;21476;51.652;7.852;2022-11-20T05:15:00;-0.80;99.90
35373;DHT22;21476;51.652;7.852;2022-11-20T05:17:26;-0.80;99.90
35373;DHT22;21476;51.652;7.852;2022-11-20T05:19:51;-0.70;99.90
35373;DHT22;21476;51.652;7.852;2022-11-20T05:22:17;-0.60;99.90
35373;DHT22;21476;51.652;7.852;2022-11-20T05:24:43;-0.70;99.90
35373;DHT22;21476;51.652;7.852;2022-11-20T05:27:08;-0.70;99.90
35373;DHT22;21476;51.652;7.852;2022-11-20T05:29:34;-0.70;99.90
35373;DHT22;21476;51.652;7.852;2022-11-20T05:32:00;-0.70;99.90
35373;DHT22;21476;51.652;7.852;2022-11-20T05:34:25;-0.70;99.90
35373;DHT22;21476;51.652;7.852;2022-11-20T05:36:51;-0.70;99.90
35373;DHT22;21476;51.652;7.852;2022-11-20T05:39:16;-0.70;99.90
35373;DHT22;21476;51.652;7.852;2022-11-20T05:41:42;-0.70;99.90
35373;DHT22;21476;51.652;7.852;2022-11-20T05:44:10;-0.60;99.90
35373;DHT22;21476;51.652;7.852;2022-11-20T05:46:36;-0.70;99.90
35373;DHT22;21476;51.652;7.852;2022-11-20T05:49:02;-0.70;99.90
35373;DHT22;21476;51.652;7.852;2022-11-20T05:51:27;-0.70;99.90
35373;DHT22;21476;51.652;7.852;2022-11-20T05:53:55;-0.70;99.90
35373;DHT22;21476;51.652;7.852;2022-11-20T05:56:21;-0.80;99.90
35373;DHT22;21476;51.652;7.852;2022-11-20T05:58:47;-0.80;99.90
35373;DHT22;21476;51.652;7.852;2022-11-20T06:01:19;-0.90;99.90
35373;DHT22;21476;51.652;7.852;2022-11-20T06:03:45;-1.00;99.90
35373;DHT22;21476;51.652;7.852;2022-11-20T06:06:14;-1.00;99.90
35373;DHT22;21476;51.652;7.852;2022-11-20T06:08:40;-1.00;99.90
35373;DHT22;21476;51.652;7.852;2022-11-20T06:11:07;-1.10;99.90
35373;DHT22;21476;51.652;7.852;2022-11-20T06:13:34;-1.10;99.90
35373;DHT22;21476;51.652;7.852;2022-11-20T06:16:00;-1.10;99.90
35373;DHT22;21476;51.652;7.852;2022-11-20T06:18:27;-1.20;99.90
35373;DHT22;21476;51.652;7.852;2022-11-20T06:21:03;-1.30;99.90
35373;DHT22;21476;51.652;7.852;2022-11-20T06:23:30;-1.30;99.90
35373;DHT22;21476;51.652;7.852;2022-11-20T06:25:57;-1.40;99.90
35373;DHT22;21476;51.652;7.852;2022-11-20T06:28:22;-1.50;99.90
35373;DHT22;21476;51.652;7.852;2022-11-20T06:30:48;-1.50;99.90
35373;DHT22;21476;51.652;7.852;2022-11-20T06:33:14;-1.60;99.90
35373;DHT22;21476;51.652;7.852;2022-11-20T06:35:39;-1.70;99.90
35373;DHT22;21476;51.652;7.852;2022-11-20T06:38:05;-1.70;99.90
35373;DHT22;21476;51.652;7.852;2022-11-20T06:40:31;-1.80;99.90
35373;DHT22;21476;51.652;7.852;2022-11-20T06:42:56;-1.80;99.90
35373;DHT22;21476;51.652;7.852;2022-11-20T06:45:22;-1.80;99.90
35373;DHT22;21476;51.652;7.852;2022-11-20T06:47:47;-1.80;99.90
35373;DHT22;21476;51.652;7.852;2022-11-20T06:50:13;-1.70;99.90
35373;DHT22;21476;51.652;7.852;2022-11-20T06:52:39;-1.70;99.90
35373;DHT22;21476;51.652;7.852;2022-11-20T06:55:04;-1.80;99.90
35373;DHT22;21476;51.652;7.852;2022-11-20T06:57:30;-1.80;99.90
35373;DHT22;21476;51.652;7.852;2022-11-20T06:59:56;-1.80;99.90
35373;DHT22;21476;51.652;7.852;2022-11-20T07:02:21;-1.90;99.90
35373;DHT22;21476;51.652;7.852;2022-11-20T07:04:47;-1.90;99.90
35373;DHT22;21476;51.652;7.852;2022-11-20T07:07:12;-1.90;99.90
35373;DHT22;21476;51.652;7.852;2022-11-20T07:09:38;-1.90;99.90
35373;DHT22;21476;51.652;7.852;2022-11-20T07:12:04;-1.90;99.90
35373;DHT22;21476;51.652;7.852;2022-11-20T07:14:30;-1.90;99.90
35373;DHT22;21476;51.652;7.852;2022-11-20T07:16:55;-2.00;99.90
35373;DHT22;21476;51.652;7.852;2022-11-20T07:19:21;-2.00;99.90
35373;DHT22;21476;51.652;7.852;2022-11-20T07:21:46;-1.90;99.90
35373;DHT22;21476;51.652;7.852;2022-11-20T07:24:12;-1.80;99.90
35373;DHT22;21476;51.652;7.852;2022-11-20T07:26:38;-1.80;99.90
35373;DHT22;21476;51.652;7.852;2022-11-20T07:29:03;-1.60;99.90
35373;DHT22;21476;51.652;7.852;2022-11-20T07:31:29;-1.20;99.90
35373;DHT22;21476;51.652;7.852;2022-11-20T07:33:55;-1.00;99.90
35373;DHT22;21476;51.652;7.852;2022-11-20T07:36:20;-0.50;99.90
35373;DHT22;21476;51.652;7.852;2022-11-20T07:38:46;0.00;99.90
35373;DHT22;21476;51.652;7.852;2022-11-20T07:41:11;0.20;99.90
35373;DHT22;21476;51.652;7.852;2022-11-20T07:43:37;0.50;99.90
35373;DHT22;21476;51.652;7.852;2022-11-20T07:46:03;0.90;99.90
35373;DHT22;21476;51.652;7.852;2022-11-20T07:48:29;1.00;99.90
35373;DHT22;21476;51.652;7.852;2022-11-20T07:50:55;0.80;99.90
35373;DHT22;21476;51.652;7.852;2022-11-20T07:53:22;0.60;99.90
35373;DHT22;21476;51.652;7.852;2022-11-20T07:55:48;0.60;99.90
35373;DHT22;21476;51.652;7.852;2022-11-20T07:58:14;0.60;99.90
35373;DHT22;21476;51.652;7.852;2022-11-20T08:00:40;0.40;99.90
35373;DHT22;21476;51.652;7.852;2022-11-20T08:03:06;0.50;99.90
35373;DHT22;21476;51.652;7.852;2022-11-20T08:05:32;0.80;99.90
35373;DHT22;21476;51.652;7.852;2022-11-20T08:07:58;1.60;99.90
35373;DHT22;21476;51.652;7.852;2022-11-20T08:10:24;2.30;99.90
35373;DHT22;21476;51.652;7.852;2022-11-20T08:12:51;3.30;99.90
35373;DHT22;21476;51.652;7.852;2022-11-20T08:15:37;3.90;99.90
35373;DHT22;21476;51.652;7.852;2022-11-20T08:18:09;4.80;99.90
35373;DHT22;21476;51.652;7.852;2022-11-20T08:20:36;5.20;99.90
35373;DHT22;21476;51.652;7.852;2022-11-20T08:23:06;6.20;99.90
35373;DHT22;21476;51.652;7.852;2022-11-20T08:25:34;6.70;99.90
35373;DHT22;21476;51.652;7.852;2022-11-20T08:28:02;6.40;99.90
35373;DHT22;21476;51.652;7.852;2022-11-20T08:30:29;6.60;99.90
35373;DHT22;21476;51.652;7.852;2022-11-20T08:32:59;7.30;99.90
35373;DHT22;21476;51.652;7.852;2022-11-20T08:35:26;8.30;99.90
35373;DHT22;21476;51.652;7.852;2022-11-20T08:37:51;8.90;99.90
35373;DHT22;21476;51.652;7.852;2022-11-20T08:40:17;9.00;99.90
35373;DHT22;21476;51.652;7.852;2022-11-20T08:42:47;9.40;99.90
35373;DHT22;21476;51.652;7.852;2022-11-20T08:45:13;9.60;99.90
35373;DHT22;21476;51.652;7.852;2022-11-20T08:47:39;10.30;99.90
35373;DHT22;21476;51.652;7.852;2022-11-20T08:50:05;10.40;99.90
35373;DHT22;21476;51.652;7.852;2022-11-20T08:52:30;10.60;99.90
35373;DHT22;21476;51.652;7.852;2022-11-20T08:54:56;10.10;99.90
35373;DHT22;21476;51.652;7.852;2022-11-20T08:57:21;9.40;99.90
35373;DHT22;21476;51.652;7.852;2022-11-20T08:59:47;9.20;99.90
35373;DHT22;21476;51.652;7.852;2022-11-20T09:02:12;8.90;99.90
35373;DHT22;21476;51.652;7.852;2022-11-20T09:04:38;9.30;99.90
35373;DHT22;21476;51.652;7.852;2022-11-20T09:07:04;9.30;99.90
35373;DHT22;21476;51.652;7.852;2022-11-20T09:09:29;9.50;99.90
35373;DHT22;21476;51.652;7.852;2022-11-20T09:11:55;10.70;99.90
35373;DHT22;21476;51.652;7.852;2022-11-20T09:14:21;10.50;99.90
35373;DHT22;21476;51.652;7.852;2022-11-20T09:16:46;10.60;99.90
35373;DHT22;21476;51.652;7.852;2022-11-20T09:19:12;10.90;99.90
35373;DHT22;21476;51.652;7.852;2022-11-20T09:21:38;10.90;99.90
35373;DHT22;21476;51.652;7.852;2022-11-20T09:24:05;11.40;99.90
35373;DHT22;21476;51.652;7.852;2022-11-20T09:26:30;10.60;99.90
35373;DHT22;21476;51.652;7.852;2022-11-20T09:28:56;10.90;99.90
35373;DHT22;21476;51.652;7.852;2022-11-20T09:31:23;12.00;99.90
35373;DHT22;21476;51.652;7.852;2022-11-20T09:33:49;11.90;99.90
35373;DHT22;21476;51.652;7.852;2022-11-20T09:36:15;11.50;99.90
35373;DHT22;21476;51.652;7.852;2022-11-20T09:38:47;10.80;99.90
35373;DHT22;21476;51.652;7.852;2022-11-20T09:46:45;11.70;99.90
35373;DHT22;21476;51.652;7.852;2022-11-20T09:54:37;12.10;99.90
35373;DHT22;21476;51.652;7.852;2022-11-20T09:57:18;11.00;99.90
35373;DHT22;21476;51.652;7.852;2022-11-20T09:59:56;11.50;99.90
35373;DHT22;21476;51.652;7.852;2022-11-20T10:10:36;11.10;99.90
35373;DHT22;21476;51.652;7.852;2022-11-20T10:13:20;10.70;99.90
35373;DHT22;21476;51.652;7.852;2022-11-20T10:30:13;9.90;99.90
35373;DHT22;21476;51.652;7.852;2022-11-20T10:33:03;10.00;99.90
35373;DHT22;21476;51.652;7.852;2022-11-20T10:35:44;9.80;99.90
35373;DHT22;21476;51.652;7.852;2022-11-20T10:38:25;9.80;99.90
35373;DHT22;21476;51.652;7.852;2022-11-20T10:41:00;9.50;99.90
35373;DHT22;21476;51.652;7.852;2022-11-20T10:43:46;9.60;99.90
35373;DHT22;21476;51.652;7.852;2022-11-20T10:46:22;9.20;99.90
35373;DHT22;21476;51.652;7.852;2022-11-20T10:48:49;9.30;99.90
35373;DHT22;21476;51.652;7.852;2022-11-20T10:51:56;9.10;99.90
35373;DHT22;21476;51.652;7.852;2022-11-20T10:54:47;9.10;99.90
35373;DHT22;21476;51.652;7.852;2022-11-20T10:57:25;8.90;99.90
35373;DHT22;21476;51.652;7.852;2022-11-20T10:59:58;8.50;99.90
35373;DHT22;21476;51.652;7.852;2022-11-20T11:07:40;8.40;99.90
35373;DHT22;21476;51.652;7.852;2022-11-20T11:10:36;8.20;99.90
35373;DHT22;21476;51.652;7.852;2022-11-20T11:13:00;8.10;99.90
35373;DHT22;21476;51.652;7.852;2022-11-20T11:17:55;7.70;99.90
35373;DHT22;21476;51.652;7.852;2022-11-20T11:20:23;7.70;99.90
35373;DHT22;21476;51.652;7.852;2022-11-20T11:22:57;7.70;99.90
35373;DHT22;21476;51.652;7.852;2022-11-20T11:27:53;8.10;99.90
35373;DHT22;21476;51.652;7.852;2022-11-20T11:30:21;8.20;99.90
35373;DHT22;21476;51.652;7.852;2022-11-20T11:32:47;8.30;99.90
35373;DHT22;21476;51.652;7.852;2022-11-20T11:35:27;8.30;99.90
35373;DHT22;21476;51.652;7.852;2022-11-20T11:38:05;8.30;99.90
35373;DHT22;21476;51.652;7.852;2022-11-20T11:40:34;8.30;99.90
35373;DHT22;21476;51.652;7.852;2022-11-20T11:43:06;8.30;99.90
35373;DHT22;21476;51.652;7.852;2022-11-20T11:45:56;8.10;99.90
35373;DHT22;21476;51.652;7.852;2022-11-20T11:48:21;8.10;99.90
35373;DHT22;21476;51.652;7.852;2022-11-20T11:50:50;8.10;99.90
35373;DHT22;21476;51.652;7.852;2022-11-20T11:53:19;8.00;99.90
35373;DHT22;21476;51.652;7.852;2022-11-20T11:56:08;7.70;99.90
35373;DHT22;21476;51.652;7.852;2022-11-20T11:58:47;7.50;99.90
35373;DHT22;21476;51.652;7.852;2022-11-20T12:01:45;7.20;99.90
35373;DHT22;21476;51.652;7.852;2022-11-20T12:07:41;6.00;99.90
35373;DHT22;21476;51.652;7.852;2022-11-20T12:10:28;5.50;99.90
35373;DHT22;21476;51.652;7.852;2022-11-20T12:13:02;5.30;99.90
35373;DHT22;21476;51.652;7.852;2022-11-20T12:15:31;5.40;99.90
35373;DHT22;21476;51.652;7.852;2022-11-20T12:17:58;5.40;99.90
35373;DHT22;21476;51.652;7.852;2022-11-20T12:20:28;5.30;99.90
35373;DHT22;21476;51.652;7.852;2022-11-20T12:22:58;5.30;99.90
35373;DHT22;21476;51.652;7.852;2022-11-20T12:25:32;5.50;99.90
35373;DHT22;21476;51.652;7.852;2022-11-20T12:30:24;5.60;99.90
35373;DHT22;21476;51.652;7.852;2022-11-20T12:38:40;5.30;99.90
35373;DHT22;21476;51.652;7.852;2022-11-20T12:50:08;4.90;99.90
35373;DHT22;21476;51.652;7.852;2022-11-20T12:58:27;4.60;99.90
35373;DHT22;21476;51.652;7.852;2022-11-20T13:07:03;4.40;99.90
35373;DHT22;21476;51.652;7.852;2022-11-20T13:09:31;4.40;99.90
35373;DHT22;21476;51.652;7.852;2022-11-20T13:12:24;4.40;99.90
35373;DHT22;21476;51.652;7.852;2022-11-20T13:17:59;4.50;99.90
35373;DHT22;21476;51.652;7.852;2022-11-20T13:20:26;4.40;99.90
35373;DHT22;21476;51.652;7.852;2022-11-20T13:22:53;4.50;99.90
35373;DHT22;21476;51.652;7.852;2022-11-20T13:30:35;4.60;99.90
35373;DHT22;21476;51.652;7.852;2022-11-20T13:33:08;4.60;99.90
35373;DHT22;21476;51.652;7.852;2022-11-20T13:35:35;4.50;99.90
35373;DHT22;21476;51.652;7.852;2022-11-20T13:40:35;4.10;99.90
35373;DHT22;21476;51.652;7.852;2022-11-20T13:43:10;4.00;99.90
35373;DHT22;21476;51.652;7.852;2022-11-20T13:45:37;4.00;99.90
35373;DHT22;21476;51.652;7.852;2022-11-20T13:48:15;4.00;99.90
35373;DHT22;21476;51.652;7.852;2022-11-20T13:50:56;4.00;99.90
35373;DHT22;21476;51.652;7.852;2022-11-20T13:53:56;4.00;99.90
35373;DHT22;21476;51.652;7.852;2022-11-20T13:56:37;3.80;99.90
35373;DHT22;21476;51.652;7.852;2022-11-20T14:01:37;4.10;99.90
35373;DHT22;21476;51.652;7.852;2022-11-20T14:04:18;4.00;99.90
35373;DHT22;21476;51.652;7.852;2022-11-20T14:06:46;4.00;99.90
35373;DHT22;21476;51.652;7.852;2022-11-20T14:11:52;4.10;99.90
35373;DHT22;21476;51.652;7.852;2022-11-20T14:14:25;4.10;99.90
35373;DHT22;21476;51.652;7.852;2022-11-20T14:16:53;3.90;99.90
35373;DHT22;21476;51.652;7.852;2022-11-20T14:19:28;3.80;99.90
35373;DHT22;21476;51.652;7.852;2022-11-20T14:22:14;3.80;99.90
35373;DHT22;21476;51.652;7.852;2022-11-20T14:24:41;3.80;99.90
35373;DHT22;21476;51.652;7.852;2022-11-20T14:27:18;3.70;99.90
35373;DHT22;21476;51.652;7.852;2022-11-20T14:29:47;3.70;99.90
35373;DHT22;21476;51.652;7.852;2022-11-20T14:32:18;3.80;99.90
35373;DHT22;21476;51.652;7.852;2022-11-20T14:34:47;3.80;99.90
35373;DHT22;21476;51.652;7.852;2022-11-20T14:37:21;3.80;99.90
35373;DHT22;21476;51.652;7.852;2022-11-20T14:39:50;3.80;99.90
35373;DHT22;21476;51.652;7.852;2022-11-20T14:42:25;3.70;99.90
35373;DHT22;21476;51.652;7.852;2022-11-20T14:44:55;3.80;99.90
35373;DHT22;21476;51.652;7.852;2022-11-20T14:47:27;3.80;99.90
35373;DHT22;21476;51.652;7.852;2022-11-20T14:49:54;3.80;99.90
35373;DHT22;21476;51.652;7.852;2022-11-20T14:52:23;3.70;99.90
35373;DHT22;21476;51.652;7.852;2022-11-20T14:54:59;3.70;99.90
35373;DHT22;21476;51.652;7.852;2022-11-20T14:57:30;3.70;99.90
35373;DHT22;21476;51.652;7.852;2022-11-20T15:00:20;3.70;99.90
35373;DHT22;21476;51.652;7.852;2022-11-20T15:02:48;3.60;99.90
35373;DHT22;21476;51.652;7.852;2022-11-20T15:05:15;3.50;99.90
35373;DHT22;21476;51.652;7.852;2022-11-20T15:07:45;3.40;99.90
35373;DHT22;21476;51.652;7.852;2022-11-20T15:10:27;3.30;99.90
35373;DHT22;21476;51.652;7.852;2022-11-20T15:12:56;3.10;99.90
35373;DHT22;21476;51.652;7.852;2022-11-20T15:18:12;3.20;99.90
35373;DHT22;21476;51.652;7.852;2022-11-20T15:20:38;3.10;99.90
35373;DHT22;21476;51.652;7.852;2022-11-20T15:23:11;3.00;99.90
35373;DHT22;21476;51.652;7.852;2022-11-20T15:25:37;3.00;99.90
35373;DHT22;21476;51.652;7.852;2022-11-20T15:28:07;3.10;99.90
35373;DHT22;21476;51.652;7.852;2022-11-20T15:30:35;3.10;99.90
35373;DHT22;21476;51.652;7.852;2022-11-20T15:33:01;3.10;99.90
35373;DHT22;21476;51.652;7.852;2022-11-20T15:35:26;3.20;99.90
35373;DHT22;21476;51.652;7.852;2022-11-20T15:37:52;3.20;99.90
35373;DHT22;21476;51.652;7.852;2022-11-20T15:40:17;3.10;99.90
35373;DHT22;21476;51.652;7.852;2022-11-20T15:42:43;3.10;99.90
35373;DHT22;21476;51.652;7.852;2022-11-20T15:45:37;3.00;99.90
35373;DHT22;21476;51.652;7.852;2022-11-20T15:48:05;2.90;99.90
35373;DHT22;21476;51.652;7.852;2022-11-20T15:50:37;3.00;99.90
35373;DHT22;21476;51.652;7.852;2022-11-20T15:53:03;3.00;99.90
35373;DHT22;21476;51.652;7.852;2022-11-20T15:55:30;3.00;99.90
35373;DHT22;21476;51.652;7.852;2022-11-20T15:57:56;2.90;99.90
35373;DHT22;21476;51.652;7.852;2022-11-20T16:00:22;2.90;99.90
35373;DHT22;21476;51.652;7.852;2022-11-20T16:02:50;2.90;99.90
35373;DHT22;21476;51.652;7.852;2022-11-20T16:05:16;2.80;99.90
35373;DHT22;21476;51.652;7.852;2022-11-20T16:07:42;2.90;99.90
35373;DHT22;21476;51.652;7.852;2022-11-20T16:10:08;2.80;99.90
35373;DHT22;21476;51.652;7.852;2022-11-20T16:12:34;2.80;99.90
35373;DHT22;21476;51.652;7.852;2022-11-20T16:15:21;2.90;99.90
35373;DHT22;21476;51.652;7.852;2022-11-20T16:18:10;2.80;99.90
35373;DHT22;21476;51.652;7.852;2022-11-20T16:20:36;2.80;99.90
35373;DHT22;21476;51.652;7.852;2022-11-20T16:23:03;2.80;99.90
35373;DHT22;21476;51.652;7.852;2022-11-20T16:25:28;2.70;99.90
35373;DHT22;21476;51.652;7.852;2022-11-20T16:27:54;2.80;99.90
35373;DHT22;21476;51.652;7.852;2022-11-20T16:30:20;2.70;99.90
35373;DHT22;21476;51.652;7.852;2022-11-20T16:32:45;2.70;99.90
35373;DHT22;21476;51.652;7.852;2022-11-20T16:35:11;2.70;99.90
35373;DHT22;21476;51.652;7.852;2022-11-20T16:37:36;2.70;99.90
35373;DHT22;21476;51.652;7.852;2022-11-20T16:40:02;2.80;99.90
35373;DHT22;21476;51.652;7.852;2022-11-20T16:42:32;2.90;99.90
35373;DHT22;21476;51.652;7.852;2022-11-20T16:44:58;2.80;99.90
35373;DHT22;21476;51.652;7.852;2022-11-20T16:47:23;2.80;99.90
35373;DHT22;21476;51.652;7.852;2022-11-20T16:49:49;2.90;99.90
35373;DHT22;21476;51.652;7.852;2022-11-20T16:52:15;2.90;99.90
35373;DHT22;21476;51.652;7.852;2022-11-20T16:54:40;2.90;99.90
35373;DHT22;21476;51.652;7.852;2022-11-20T16:57:06;2.90;99.90
35373;DHT22;21476;51.652;7.852;2022-11-20T16:59:32;2.90;99.90
35373;DHT22;21476;51.652;7.852;2022-11-20T17:01:57;2.90;99.90
35373;DHT22;21476;51.652;7.852;2022-11-20T17:04:23;2.80;99.90
35373;DHT22;21476;51.652;7.852;2022-11-20T17:06:49;2.90;99.90
35373;DHT22;21476;51.652;7.852;2022-11-20T17:09:14;2.90;99.90
35373;DHT22;21476;51.652;7.852;2022-11-20T17:11:40;2.80;99.90
35373;DHT22;21476;51.652;7.852;2022-11-20T17:14:06;2.80;99.90
35373;DHT22;21476;51.652;7.852;2022-11-20T17:16:32;2.80;99.90
35373;DHT22;21476;51.652;7.852;2022-11-20T17:18:58;2.80;99.90
35373;DHT22;21476;51.652;7.852;2022-11-20T17:21:24;2.80;99.90
35373;DHT22;21476;51.652;7.852;2022-11-20T17:23:51;2.90;99.90
35373;DHT22;21476;51.652;7.852;2022-11-20T17:26:19;2.90;99.90